Terminal Aerodrome Forecast
Issued by NWS Burlington, VT

Home | Current Version | Previous Version | Text Only | Print | Product List | Glossary On
Versions: 1 2 3 4 5 6 7 8 9 10 11 12 13 14 15 16 17 18 19 20 21 22 23
000
FTUS41 KBTV 220520
TAFBTV
TAF
KBTV 220520Z 2206/2306 00000KT 6SM BR OVC025
      TEMPO 2206/2210 4SM BR OVC007
     FM221300 15004KT P6SM OVC025
     FM230400 15005KT P6SM VCSH BKN025 OVC030=

USA.gov is the U.S. government's official web portal to all federal, state and local government web resources and services.